createdAt,value
2018-11-10T00:00:36.861Z,0.00
2018-11-10T00:01:36.854Z,0.00
2018-11-10T00:02:36.828Z,0.00
2018-11-10T00:03:36.800Z,0.00
2018-11-10T00:04:36.745Z,0.00
2018-11-10T00:05:36.777Z,0.00
2018-11-10T00:06:36.764Z,0.00
2018-11-10T00:07:36.796Z,0.00
2018-11-10T00:08:36.769Z,0.00
2018-11-10T00:09:36.733Z,0.00
2018-11-10T00:10:36.734Z,0.00
2018-11-10T00:11:36.718Z,0.00
2018-11-10T00:12:36.699Z,0.00
2018-11-10T00:13:36.689Z,0.00
2018-11-10T00:14:36.695Z,0.00
2018-11-10T00:15:36.671Z,0.00
2018-11-10T00:16:36.715Z,0.00
2018-11-10T00:17:36.646Z,0.00
2018-11-10T00:18:36.635Z,0.00
2018-11-10T00:19:36.633Z,0.00
2018-11-10T00:20:36.614Z,0.00
2018-11-10T00:21:36.608Z,0.00
2018-11-10T00:22:36.628Z,0.00
2018-11-10T00:23:36.628Z,0.00
2018-11-10T00:24:36.572Z,0.00
2018-11-10T00:25:36.574Z,0.00
2018-11-10T00:26:36.544Z,0.00
2018-11-10T00:27:36.537Z,0.00
2018-11-10T00:28:36.555Z,0.00
2018-11-10T00:29:36.518Z,0.00
2018-11-10T00:30:36.463Z,0.00
2018-11-10T00:31:36.496Z,0.00
2018-11-10T00:32:36.488Z,0.00
2018-11-10T00:33:36.496Z,0.00
2018-11-10T00:34:36.481Z,0.00
2018-11-10T00:35:36.499Z,0.00
2018-11-10T00:36:36.394Z,0.00
2018-11-10T00:37:36.429Z,0.00
2018-11-10T00:38:36.454Z,0.00
2018-11-10T00:39:36.422Z,0.00
2018-11-10T00:40:36.386Z,0.00
2018-11-10T00:41:36.380Z,0.00
2018-11-10T00:42:36.367Z,0.00
2018-11-10T00:43:36.359Z,0.00
2018-11-10T00:44:36.387Z,0.00
2018-11-10T00:45:36.383Z,0.00
2018-11-10T00:46:36.331Z,0.00
2018-11-10T00:47:36.323Z,0.00
2018-11-10T00:48:36.304Z,0.00
2018-11-10T00:49:36.292Z,0.00
2018-11-10T00:50:36.318Z,0.00
2018-11-10T00:51:36.268Z,0.00
2018-11-10T00:52:36.264Z,0.00
2018-11-10T00:53:36.259Z,0.00
2018-11-10T00:54:36.241Z,0.00
2018-11-10T00:55:36.269Z,0.00
2018-11-10T00:56:36.172Z,0.00
2018-11-10T00:57:36.170Z,0.00
2018-11-10T00:58:36.158Z,0.00
2018-11-10T00:59:36.184Z,0.00
2018-11-10T01:00:36.213Z,0.00
2018-11-10T01:01:36.123Z,0.00
2018-11-10T01:02:36.179Z,0.00
2018-11-10T01:03:36.096Z,0.00
2018-11-10T01:04:36.132Z,0.00
2018-11-10T01:05:36.155Z,0.00
2018-11-10T01:06:36.266Z,0.00
2018-11-10T01:07:36.187Z,0.00
2018-11-10T01:08:36.117Z,0.00
2018-11-10T01:09:36.079Z,0.00
2018-11-10T01:10:36.077Z,0.00
2018-11-10T01:11:36.075Z,0.00
2018-11-10T01:12:36.079Z,0.00
2018-11-10T01:13:36.053Z,0.00
2018-11-10T01:14:36.058Z,0.00
2018-11-10T01:15:36.006Z,0.00
2018-11-10T01:16:36.000Z,0.00
2018-11-10T01:17:36.001Z,0.00
2018-11-10T01:18:35.978Z,0.00
2018-11-10T01:19:35.996Z,0.00
2018-11-10T01:20:36.532Z,0.00
2018-11-10T01:21:35.943Z,0.00
2018-11-10T01:22:35.968Z,0.00
2018-11-10T01:23:35.919Z,0.00
2018-11-10T01:24:35.940Z,0.00
2018-11-10T01:25:35.899Z,0.00
2018-11-10T01:26:35.883Z,0.00
2018-11-10T01:27:35.893Z,0.00
2018-11-10T01:28:35.901Z,0.00
2018-11-10T01:29:35.857Z,0.00
2018-11-10T01:30:35.877Z,0.00
2018-11-10T01:31:35.850Z,0.00
2018-11-10T01:32:35.831Z,0.00
2018-11-10T01:33:35.816Z,0.00
2018-11-10T01:34:35.804Z,0.00
2018-11-10T01:35:35.829Z,0.00
2018-11-10T01:36:35.798Z,0.00
2018-11-10T01:37:35.764Z,0.00
2018-11-10T01:38:35.800Z,0.00
2018-11-10T01:39:35.704Z,0.00
2018-11-10T01:40:35.737Z,0.00
2018-11-10T01:41:35.726Z,0.00
2018-11-10T01:42:35.722Z,0.00
2018-11-10T01:43:35.741Z,0.00
2018-11-10T01:44:35.671Z,0.00
2018-11-10T01:45:35.676Z,0.00
2018-11-10T01:46:35.667Z,0.00
2018-11-10T01:47:35.654Z,0.00
2018-11-10T01:48:35.630Z,0.00
2018-11-10T01:49:35.640Z,0.00
2018-11-10T01:50:35.659Z,0.00
2018-11-10T01:51:35.613Z,0.00
2018-11-10T01:52:35.564Z,0.00
2018-11-10T01:53:35.592Z,0.00
2018-11-10T01:54:35.615Z,0.00
2018-11-10T01:55:35.566Z,0.00
2018-11-10T01:56:35.587Z,0.00
2018-11-10T01:57:35.562Z,0.00
2018-11-10T01:58:35.536Z,0.00
2018-11-10T01:59:35.525Z,0.00
2018-11-10T02:00:35.475Z,0.00
2018-11-10T02:01:35.549Z,0.00
2018-11-10T02:02:35.496Z,0.00
2018-11-10T02:03:35.486Z,0.00
2018-11-10T02:04:35.474Z,0.00
2018-11-10T02:05:35.465Z,0.00
2018-11-10T02:06:35.704Z,0.00
2018-11-10T02:07:35.443Z,0.00
2018-11-10T02:08:35.427Z,0.00
2018-11-10T02:09:35.369Z,0.00
2018-11-10T02:10:35.366Z,0.00
2018-11-10T02:11:35.418Z,0.00
2018-11-10T02:12:35.423Z,0.00
2018-11-10T02:13:35.401Z,0.00
2018-11-10T02:14:35.366Z,0.00
2018-11-10T02:15:35.358Z,0.00
2018-11-10T02:16:35.344Z,0.00
2018-11-10T02:17:35.284Z,0.00
2018-11-10T02:18:35.348Z,0.00
2018-11-10T02:19:35.306Z,0.00
2018-11-10T02:20:35.299Z,0.00
2018-11-10T02:21:35.278Z,0.00
2018-11-10T02:22:35.278Z,0.00
2018-11-10T02:23:35.302Z,0.00
2018-11-10T02:24:35.245Z,0.00
2018-11-10T02:25:35.237Z,0.00
2018-11-10T02:26:35.273Z,0.00
2018-11-10T02:27:35.219Z,0.00
2018-11-10T02:28:35.236Z,0.00
2018-11-10T02:29:35.199Z,0.00
2018-11-10T02:30:35.189Z,0.00
2018-11-10T02:31:35.206Z,0.00
2018-11-10T02:32:35.166Z,0.00
2018-11-10T02:33:35.150Z,0.00
2018-11-10T02:34:35.143Z,0.00
2018-11-10T02:35:35.171Z,0.00
2018-11-10T02:36:35.120Z,0.00
2018-11-10T02:37:35.111Z,0.00
2018-11-10T02:38:35.164Z,0.00
2018-11-10T02:39:35.088Z,0.00
2018-11-10T02:40:35.105Z,0.00
2018-11-10T02:41:35.062Z,0.00
2018-11-10T02:42:35.049Z,0.00
2018-11-10T02:43:35.039Z,0.00
2018-11-10T02:44:34.989Z,0.00
2018-11-10T02:45:35.060Z,0.00
2018-11-10T02:46:35.006Z,0.00
2018-11-10T02:47:34.998Z,0.00
2018-11-10T02:48:34.985Z,0.00
2018-11-10T02:49:34.973Z,0.00
2018-11-10T02:50:35.002Z,0.00
2018-11-10T02:51:34.951Z,0.00
2018-11-10T02:52:34.947Z,0.00
2018-11-10T02:53:34.936Z,0.00
2018-11-10T02:54:34.874Z,0.00
2018-11-10T02:55:34.947Z,0.00
2018-11-10T02:56:34.900Z,0.00
2018-11-10T02:57:34.846Z,0.00
2018-11-10T02:58:34.827Z,0.00
2018-11-10T02:59:34.864Z,0.00
2018-11-10T03:00:34.839Z,0.00
2018-11-10T03:01:34.846Z,0.00
2018-11-10T03:02:34.845Z,0.00
2018-11-10T03:03:34.974Z,0.00
2018-11-10T03:04:34.809Z,0.00
2018-11-10T03:05:34.801Z,0.00
2018-11-10T03:06:34.814Z,0.00
2018-11-10T03:07:34.729Z,0.00
2018-11-10T03:08:34.795Z,0.00
2018-11-10T03:09:34.711Z,0.00
2018-11-10T03:10:34.779Z,0.00
2018-11-10T03:11:34.732Z,0.00
2018-11-10T03:12:34.724Z,0.00
2018-11-10T03:13:34.762Z,0.00
2018-11-10T03:14:34.694Z,0.00
2018-11-10T03:15:34.755Z,0.00
2018-11-10T03:16:34.721Z,0.00
2018-11-10T03:17:34.654Z,0.00
2018-11-10T03:18:34.663Z,0.00
2018-11-10T03:19:34.652Z,0.00
2018-11-10T03:20:34.628Z,0.00
2018-11-10T03:21:34.639Z,0.00
2018-11-10T03:22:34.644Z,0.00
2018-11-10T03:23:34.552Z,0.00
2018-11-10T03:24:34.595Z,0.00
2018-11-10T03:25:34.574Z,0.00
2018-11-10T03:26:34.603Z,0.00
2018-11-10T03:27:34.591Z,0.00
2018-11-10T03:28:34.546Z,0.00
2018-11-10T03:29:34.544Z,0.00
2018-11-10T03:30:34.559Z,0.00
2018-11-10T03:31:34.506Z,0.00
2018-11-10T03:32:34.530Z,0.00
2018-11-10T03:33:34.520Z,0.00
2018-11-10T03:34:34.432Z,0.00
2018-11-10T03:35:34.467Z,0.00
2018-11-10T03:36:34.490Z,0.00
2018-11-10T03:37:34.444Z,0.00
2018-11-10T03:38:34.441Z,0.00
2018-11-10T03:39:34.426Z,0.00
2018-11-10T03:40:34.456Z,0.00
2018-11-10T03:41:34.369Z,0.00
2018-11-10T03:42:34.405Z,0.00
2018-11-10T03:43:34.380Z,0.00
2018-11-10T03:44:34.365Z,0.00
2018-11-10T03:45:34.388Z,0.00
2018-11-10T03:46:34.354Z,0.00
2018-11-10T03:47:34.342Z,0.00
2018-11-10T03:48:34.387Z,0.00
2018-11-10T03:49:34.348Z,0.00
2018-11-10T03:50:34.315Z,0.00
2018-11-10T03:51:34.290Z,0.00
2018-11-10T03:52:34.281Z,0.00
2018-11-10T03:53:34.286Z,0.00
2018-11-10T03:54:34.256Z,0.00
2018-11-10T03:55:34.275Z,0.00
2018-11-10T03:56:34.230Z,0.00
2018-11-10T03:57:34.235Z,0.00
2018-11-10T03:58:34.219Z,0.00
2018-11-10T03:59:34.232Z,0.00
2018-11-10T04:00:34.186Z,0.00
2018-11-10T04:01:34.176Z,0.00
2018-11-10T04:02:34.300Z,0.00
2018-11-10T04:03:34.161Z,0.00
2018-11-10T04:04:34.187Z,0.00
2018-11-10T04:05:34.140Z,0.00
2018-11-10T04:06:34.095Z,0.00
2018-11-10T04:07:34.114Z,0.00
2018-11-10T04:08:34.078Z,0.00
2018-11-10T04:09:34.116Z,0.00
2018-11-10T04:10:34.040Z,0.00
2018-11-10T04:11:34.076Z,0.00
2018-11-10T04:12:34.190Z,0.00
2018-11-10T04:13:34.033Z,0.00
2018-11-10T04:14:34.064Z,0.00
2018-11-10T04:15:33.983Z,0.00
2018-11-10T04:16:33.972Z,0.00
2018-11-10T04:17:34.005Z,0.00
2018-11-10T04:18:34.055Z,0.00
2018-11-10T04:19:33.985Z,0.00
2018-11-10T04:20:33.973Z,0.00
2018-11-10T04:21:33.916Z,0.00
2018-11-10T04:22:33.952Z,0.00
2018-11-10T04:23:33.969Z,0.00
2018-11-10T04:24:33.924Z,0.00
2018-11-10T04:25:33.927Z,0.00
2018-11-10T04:26:33.908Z,0.00
2018-11-10T04:27:33.925Z,0.00
2018-11-10T04:28:33.915Z,0.00
2018-11-10T04:29:33.908Z,0.00
2018-11-10T04:30:33.861Z,0.00
2018-11-10T04:31:33.846Z,0.00
2018-11-10T04:32:33.836Z,0.00
2018-11-10T04:33:33.861Z,0.00
2018-11-10T04:34:33.822Z,0.00
2018-11-10T04:35:33.806Z,0.00
2018-11-10T04:36:33.835Z,0.00
2018-11-10T04:37:33.781Z,0.00
2018-11-10T04:38:33.770Z,0.00
2018-11-10T04:39:33.772Z,0.00
2018-11-10T04:40:33.777Z,0.00
2018-11-10T04:41:33.737Z,0.00
2018-11-10T04:42:33.724Z,0.00
2018-11-10T04:43:33.742Z,0.00
2018-11-10T04:44:33.704Z,0.00
2018-11-10T04:45:33.697Z,0.00
2018-11-10T04:46:33.723Z,0.00
2018-11-10T04:47:33.678Z,0.00
2018-11-10T04:48:33.689Z,0.00
2018-11-10T04:49:33.667Z,0.00
2018-11-10T04:50:33.643Z,0.00
2018-11-10T04:51:33.639Z,0.00
2018-11-10T04:52:33.617Z,0.00
2018-11-10T04:53:33.643Z,0.00
2018-11-10T04:54:33.553Z,0.00
2018-11-10T04:55:33.587Z,0.00
2018-11-10T04:56:33.575Z,0.00
2018-11-10T04:57:33.567Z,0.00
2018-11-10T04:58:33.574Z,0.00
2018-11-10T04:59:33.588Z,0.00
2018-11-10T05:00:33.526Z,0.00
2018-11-10T05:01:33.514Z,0.00
2018-11-10T05:02:33.506Z,0.00
2018-11-10T05:03:33.496Z,0.00
2018-11-10T05:04:33.536Z,0.00
2018-11-10T05:05:33.438Z,0.00
2018-11-10T05:06:33.473Z,0.00
2018-11-10T05:07:33.455Z,0.00
2018-11-10T05:08:33.447Z,0.00
2018-11-10T05:09:33.588Z,0.00
2018-11-10T05:10:33.417Z,0.00
2018-11-10T05:11:33.413Z,0.00
2018-11-10T05:12:33.426Z,0.00
2018-11-10T05:13:33.385Z,0.00
2018-11-10T05:14:33.370Z,0.00
2018-11-10T05:15:33.392Z,0.00
2018-11-10T05:16:33.392Z,0.00
2018-11-10T05:17:33.347Z,0.00
2018-11-10T05:18:33.336Z,0.00
2018-11-10T05:19:33.320Z,0.00
2018-11-10T05:20:33.320Z,0.00
2018-11-10T05:21:33.367Z,0.00
2018-11-10T05:22:33.327Z,0.00
2018-11-10T05:23:33.285Z,0.00
2018-11-10T05:24:33.267Z,0.00
2018-11-10T05:25:33.267Z,0.00
2018-11-10T05:26:33.245Z,0.00
2018-11-10T05:27:33.275Z,0.00
2018-11-10T05:28:33.179Z,0.00
2018-11-10T05:29:33.215Z,0.00
2018-11-10T05:30:33.194Z,0.00
2018-11-10T05:31:33.145Z,0.00
2018-11-10T05:32:33.210Z,0.00
2018-11-10T05:33:33.118Z,0.00
2018-11-10T05:34:33.182Z,0.00
2018-11-10T05:35:33.144Z,0.00
2018-11-10T05:36:33.145Z,0.00
2018-11-10T05:37:33.125Z,0.00
2018-11-10T05:38:33.073Z,0.00
2018-11-10T05:39:33.129Z,0.00
2018-11-10T05:40:33.263Z,0.00
2018-11-10T05:41:33.076Z,0.00
2018-11-10T05:42:33.062Z,0.00
2018-11-10T05:43:33.008Z,0.00
2018-11-10T05:44:33.048Z,0.00
2018-11-10T05:45:33.039Z,0.00
2018-11-10T05:46:33.022Z,0.00
2018-11-10T05:47:33.043Z,0.00
2018-11-10T05:48:32.997Z,0.00
2018-11-10T05:49:32.987Z,0.00
2018-11-10T05:50:32.978Z,0.00
2018-11-10T05:51:32.997Z,0.00
2018-11-10T05:52:32.956Z,0.00
2018-11-10T05:53:32.943Z,0.00
2018-11-10T05:54:32.978Z,0.00
2018-11-10T05:55:32.920Z,0.00
2018-11-10T05:56:32.910Z,0.00
2018-11-10T05:57:32.898Z,0.00
2018-11-10T05:58:32.888Z,0.00
2018-11-10T05:59:32.910Z,0.00
2018-11-10T06:00:32.871Z,0.00
2018-11-10T06:01:32.861Z,0.00
2018-11-10T06:02:32.947Z,0.00
2018-11-10T06:03:32.786Z,0.00
2018-11-10T06:04:32.890Z,0.00
2018-11-10T06:05:32.818Z,0.00
2018-11-10T06:06:32.847Z,0.00
2018-11-10T06:07:32.791Z,0.00
2018-11-10T06:08:32.799Z,0.00
2018-11-10T06:09:32.781Z,0.00
2018-11-10T06:10:32.805Z,0.00
2018-11-10T06:11:32.750Z,0.00
2018-11-10T06:12:32.738Z,0.00
2018-11-10T06:13:32.726Z,0.00
2018-11-10T06:14:32.715Z,0.00
2018-11-10T06:15:32.740Z,0.00
2018-11-10T06:16:32.690Z,0.00
2018-11-10T06:17:32.686Z,4.00
2018-11-10T06:18:32.775Z,4.00
2018-11-10T06:19:32.682Z,0.00
2018-11-10T06:20:32.648Z,0.00
2018-11-10T06:21:32.636Z,0.00
2018-11-10T06:22:32.629Z,0.00
2018-11-10T06:23:32.638Z,4.00
2018-11-10T06:24:32.602Z,4.00
2018-11-10T06:25:32.590Z,4.00
2018-11-10T06:26:32.689Z,4.00
2018-11-10T06:27:32.568Z,4.00
2018-11-10T06:28:32.590Z,4.00
2018-11-10T06:29:32.561Z,8.00
2018-11-10T06:30:32.496Z,4.00
2018-11-10T06:31:32.533Z,8.00
2018-11-10T06:32:32.523Z,8.00
2018-11-10T06:33:32.530Z,12.00
2018-11-10T06:34:32.498Z,8.00
2018-11-10T06:35:32.487Z,12.00
2018-11-10T06:36:32.474Z,12.00
2018-11-10T06:37:32.458Z,12.00
2018-11-10T06:38:32.487Z,16.00
2018-11-10T06:39:32.436Z,20.00
2018-11-10T06:40:32.427Z,20.00
2018-11-10T06:41:32.495Z,20.00
2018-11-10T06:42:32.402Z,20.00
2018-11-10T06:43:32.373Z,24.00
2018-11-10T06:44:32.472Z,28.00
2018-11-10T06:45:32.381Z,32.00
2018-11-10T06:46:32.402Z,32.00
2018-11-10T06:47:32.357Z,36.00
2018-11-10T06:48:32.301Z,40.00
2018-11-10T06:49:32.328Z,44.00
2018-11-10T06:50:32.320Z,44.00
2018-11-10T06:51:32.343Z,44.00
2018-11-10T06:52:32.296Z,48.00
2018-11-10T06:53:32.322Z,48.00
2018-11-10T06:54:32.285Z,52.00
2018-11-10T06:55:32.260Z,52.00
2018-11-10T06:56:32.257Z,56.00
2018-11-10T06:57:32.231Z,60.00
2018-11-10T06:58:32.228Z,60.00
2018-11-10T06:59:32.252Z,64.00
2018-11-10T07:00:32.236Z,68.00
2018-11-10T07:01:32.166Z,68.00
2018-11-10T07:02:32.185Z,72.00
2018-11-10T07:03:32.227Z,68.00
2018-11-10T07:04:32.157Z,68.00
2018-11-10T07:05:32.179Z,72.00
2018-11-10T07:06:32.157Z,72.00
2018-11-10T07:07:32.280Z,76.00
2018-11-10T07:08:32.117Z,76.00
2018-11-10T07:09:32.137Z,76.00
2018-11-10T07:10:32.131Z,76.00
2018-11-10T07:11:32.152Z,76.00
2018-11-10T07:12:32.076Z,80.00
2018-11-10T07:13:32.092Z,80.00
2018-11-10T07:14:32.051Z,84.00
2018-11-10T07:15:32.067Z,84.00
2018-11-10T07:16:32.028Z,88.00
2018-11-10T07:17:32.097Z,92.00
2018-11-10T07:18:31.991Z,100.00
2018-11-10T07:19:32.037Z,108.00
2018-11-10T07:20:31.987Z,112.00
2018-11-10T07:21:32.011Z,120.00
2018-11-10T07:22:31.970Z,128.00
2018-11-10T07:23:31.997Z,124.00
2018-11-10T07:24:31.953Z,132.00
2018-11-10T07:25:31.927Z,140.00
2018-11-10T07:26:31.937Z,144.00
2018-11-10T07:27:31.894Z,148.00
2018-11-10T07:28:31.932Z,144.00
2018-11-10T07:29:32.045Z,144.00
2018-11-10T07:30:31.838Z,144.00
2018-11-10T07:31:31.871Z,152.00
2018-11-10T07:32:31.861Z,156.00
2018-11-10T07:33:31.879Z,168.00
2018-11-10T07:34:31.869Z,184.00
2018-11-10T07:35:31.827Z,204.00
2018-11-10T07:36:31.812Z,224.00
2018-11-10T07:37:31.920Z,248.00
2018-11-10T07:38:31.820Z,272.00
2018-11-10T07:39:31.776Z,300.00
2018-11-10T07:40:31.768Z,328.00
2018-11-10T07:41:31.750Z,352.00
2018-11-10T07:42:31.744Z,380.00
2018-11-10T07:43:31.752Z,404.00
2018-11-10T07:44:31.722Z,420.00
2018-11-10T07:45:31.752Z,440.00
2018-11-10T07:46:31.721Z,452.00
2018-11-10T07:47:31.689Z,460.00
2018-11-10T07:48:31.703Z,468.00
2018-11-10T07:49:31.769Z,480.00
2018-11-10T07:50:31.665Z,476.00
2018-11-10T07:51:31.685Z,468.00
2018-11-10T07:52:31.632Z,440.00
2018-11-10T07:53:31.634Z,404.00
2018-11-10T07:54:31.609Z,400.00
2018-11-10T07:55:31.556Z,396.00
2018-11-10T07:56:31.617Z,420.00
2018-11-10T07:57:31.539Z,452.00
2018-11-10T07:58:31.565Z,468.00
2018-11-10T07:59:31.562Z,500.00
2018-11-10T08:00:31.561Z,496.00
2018-11-10T08:01:31.577Z,468.00
2018-11-10T08:02:31.523Z,456.00
2018-11-10T08:03:31.520Z,452.00
2018-11-10T08:04:31.501Z,444.00
2018-11-10T08:05:31.448Z,460.00
2018-11-10T08:06:31.631Z,480.00
2018-11-10T08:07:31.466Z,448.00
2018-11-10T08:08:31.481Z,416.00
2018-11-10T08:09:31.453Z,392.00
2018-11-10T08:10:31.437Z,396.00
2018-11-10T08:11:31.474Z,408.00
2018-11-10T08:12:31.370Z,416.00
2018-11-10T08:13:31.352Z,428.00
2018-11-10T08:14:31.442Z,452.00
2018-11-10T08:15:31.387Z,468.00
2018-11-10T08:16:31.360Z,512.00
2018-11-10T08:17:31.392Z,564.00
2018-11-10T08:18:31.424Z,612.00
2018-11-10T08:19:31.334Z,660.00
2018-11-10T08:20:31.344Z,688.00
2018-11-10T08:21:31.308Z,704.00
2018-11-10T08:22:31.285Z,712.00
2018-11-10T08:23:31.291Z,724.00
2018-11-10T08:24:31.275Z,720.00
2018-11-10T08:25:31.266Z,712.00
2018-11-10T08:26:31.267Z,700.00
2018-11-10T08:27:31.285Z,688.00
2018-11-10T08:28:31.258Z,648.00
2018-11-10T08:29:31.228Z,620.00
2018-11-10T08:30:31.215Z,608.00
2018-11-10T08:31:31.160Z,608.00
2018-11-10T08:32:31.235Z,604.00
2018-11-10T08:33:31.180Z,600.00
2018-11-10T08:34:32.658Z,596.00
2018-11-10T08:35:32.164Z,612.00
2018-11-10T08:36:31.376Z,608.00
2018-11-10T08:37:31.261Z,608.00
2018-11-10T08:38:31.087Z,660.00
2018-11-10T08:39:31.156Z,676.00
2018-11-10T08:40:31.066Z,708.00
2018-11-10T08:41:31.100Z,792.00
2018-11-10T08:42:31.095Z,812.00
2018-11-10T08:43:31.077Z,924.00
2018-11-10T08:44:31.105Z,920.00
2018-11-10T08:45:31.041Z,904.00
2018-11-10T08:46:31.041Z,948.00
2018-11-10T08:47:31.026Z,968.00
2018-11-10T08:48:31.021Z,972.00
2018-11-10T08:49:31.039Z,972.00
2018-11-10T08:50:31.002Z,1040.00
2018-11-10T08:51:30.987Z,1100.00
2018-11-10T08:52:30.967Z,1140.00
2018-11-10T08:53:30.964Z,1148.00
2018-11-10T08:54:30.986Z,1136.00
2018-11-10T08:55:30.936Z,1108.00
2018-11-10T08:56:30.941Z,1152.00
2018-11-10T08:57:30.969Z,1216.00
2018-11-10T08:58:30.915Z,1136.00
2018-11-10T08:59:31.037Z,1088.00
2018-11-10T09:00:30.895Z,980.00
2018-11-10T09:01:30.854Z,924.00
2018-11-10T09:02:30.833Z,880.00
2018-11-10T09:03:30.826Z,804.00
2018-11-10T09:04:30.853Z,676.00
2018-11-10T09:05:30.837Z,612.00
2018-11-10T09:06:30.867Z,572.00
2018-11-10T09:07:30.950Z,616.00
2018-11-10T09:08:30.804Z,660.00
2018-11-10T09:09:30.883Z,660.00
2018-11-10T09:10:30.776Z,660.00
2018-11-10T09:11:30.802Z,660.00
2018-11-10T09:12:30.755Z,724.00
2018-11-10T09:13:30.762Z,704.00
2018-11-10T09:14:30.734Z,744.00
2018-11-10T09:15:30.737Z,732.00
2018-11-10T09:16:30.754Z,712.00
2018-11-10T09:17:30.701Z,700.00
2018-11-10T09:18:30.706Z,720.00
2018-11-10T09:19:30.634Z,744.00
2018-11-10T09:20:30.711Z,756.00
2018-11-10T09:21:30.721Z,772.00
2018-11-10T09:22:30.644Z,884.00
2018-11-10T09:23:30.643Z,924.00
2018-11-10T09:24:30.668Z,980.00
2018-11-10T09:25:30.626Z,1104.00
2018-11-10T09:26:30.613Z,1188.00
2018-11-10T09:27:30.598Z,1208.00
2018-11-10T09:28:30.595Z,1188.00
2018-11-10T09:29:30.614Z,1204.00
2018-11-10T09:30:30.565Z,1220.00
2018-11-10T09:31:30.556Z,1280.00
2018-11-10T09:32:30.549Z,1328.00
2018-11-10T09:33:30.522Z,1324.00
2018-11-10T09:34:30.557Z,1284.00
2018-11-10T09:35:30.501Z,1296.00
2018-11-10T09:36:30.544Z,1324.00
2018-11-10T09:37:30.486Z,1356.00
2018-11-10T09:38:30.524Z,1384.00
2018-11-10T09:39:30.460Z,1384.00
2018-11-10T09:40:30.458Z,1372.00
2018-11-10T09:41:30.450Z,1344.00
2018-11-10T09:42:30.644Z,1320.00
2018-11-10T09:43:30.476Z,1308.00
2018-11-10T09:44:30.369Z,1284.00
2018-11-10T09:45:30.398Z,1288.00
2018-11-10T09:46:30.383Z,1332.00
2018-11-10T09:47:30.376Z,1404.00
2018-11-10T09:48:30.360Z,1472.00
2018-11-10T09:49:30.399Z,1572.00
2018-11-10T09:50:30.341Z,1640.00
2018-11-10T09:51:30.325Z,1704.00
2018-11-10T09:52:30.323Z,1756.00
2018-11-10T09:53:30.316Z,1792.00
2018-11-10T09:54:30.300Z,1820.00
2018-11-10T09:55:30.322Z,1808.00
2018-11-10T09:56:30.281Z,1732.00
2018-11-10T09:57:30.303Z,1608.00
2018-11-10T09:58:30.258Z,1484.00
2018-11-10T09:59:30.202Z,1452.00
2018-11-10T10:00:30.356Z,1468.00
2018-11-10T10:01:30.363Z,1472.00
2018-11-10T10:02:30.548Z,1516.00
2018-11-10T10:03:30.200Z,1568.00
2018-11-10T10:04:30.188Z,1648.00
2018-11-10T10:05:30.201Z,1708.00
2018-11-10T10:06:30.133Z,1696.00
2018-11-10T10:07:30.160Z,1688.00
2018-11-10T10:08:30.159Z,1704.00
2018-11-10T10:09:30.149Z,1700.00
2018-11-10T10:10:30.166Z,1680.00
2018-11-10T10:11:30.149Z,1648.00
2018-11-10T10:12:30.138Z,1604.00
2018-11-10T10:13:30.111Z,1520.00
2018-11-10T10:14:30.108Z,1424.00
2018-11-10T10:15:30.069Z,1376.00
2018-11-10T10:16:30.239Z,1384.00
2018-11-10T10:17:30.048Z,1412.00
2018-11-10T10:18:30.043Z,1456.00
2018-11-10T10:19:30.028Z,1468.00
2018-11-10T10:20:30.016Z,1472.00
2018-11-10T10:21:30.072Z,1464.00
2018-11-10T10:22:29.948Z,1420.00
2018-11-10T10:23:29.990Z,1372.00
2018-11-10T10:24:29.975Z,1400.00
2018-11-10T10:25:29.964Z,1448.00
2018-11-10T10:26:29.983Z,1512.00
2018-11-10T10:27:29.937Z,1588.00
2018-11-10T10:28:30.082Z,1704.00
2018-11-10T10:29:29.929Z,1788.00
2018-11-10T10:30:29.910Z,1824.00
2018-11-10T10:31:29.929Z,1852.00
2018-11-10T10:32:29.923Z,1920.00
2018-11-10T10:33:29.880Z,1972.00
2018-11-10T10:34:30.056Z,1988.00
2018-11-10T10:35:30.065Z,1968.00
2018-11-10T10:36:29.840Z,1908.00
2018-11-10T10:37:29.831Z,1952.00
2018-11-10T10:38:29.817Z,1952.00
2018-11-10T10:39:29.806Z,2032.00
2018-11-10T10:40:29.806Z,1948.00
2018-11-10T10:41:29.783Z,1848.00
2018-11-10T10:42:29.819Z,1816.00
2018-11-10T10:43:29.762Z,1744.00
2018-11-10T10:44:29.754Z,1740.00
2018-11-10T10:45:29.801Z,1672.00
2018-11-10T10:46:29.739Z,1616.00
2018-11-10T10:47:29.715Z,1560.00
2018-11-10T10:48:29.804Z,1548.00
2018-11-10T10:49:29.706Z,1620.00
2018-11-10T10:50:29.694Z,1572.00
2018-11-10T10:51:29.674Z,1628.00
2018-11-10T10:52:29.666Z,1612.00
2018-11-10T10:53:29.690Z,1676.00
2018-11-10T10:54:29.642Z,1708.00
2018-11-10T10:55:29.586Z,1600.00
2018-11-10T10:56:29.639Z,1636.00
2018-11-10T10:57:29.615Z,1624.00
2018-11-10T10:58:29.622Z,1560.00
2018-11-10T10:59:29.619Z,1564.00
2018-11-10T11:00:29.585Z,1560.00
2018-11-10T11:01:29.569Z,1548.00
2018-11-10T11:02:29.551Z,1496.00
2018-11-10T11:03:29.639Z,1444.00
2018-11-10T11:04:29.530Z,1404.00
2018-11-10T11:05:29.536Z,1352.00
2018-11-10T11:06:29.504Z,1320.00
2018-11-10T11:07:29.533Z,1324.00
2018-11-10T11:08:29.520Z,1356.00
2018-11-10T11:09:29.714Z,1400.00
2018-11-10T11:10:29.467Z,1420.00
2018-11-10T11:11:29.467Z,1424.00
2018-11-10T11:12:29.455Z,1408.00
2018-11-10T11:13:29.427Z,1400.00
2018-11-10T11:14:29.429Z,1384.00
2018-11-10T11:15:29.536Z,1380.00
2018-11-10T11:16:29.454Z,1364.00
2018-11-10T11:17:29.404Z,1360.00
2018-11-10T11:18:29.431Z,1372.00
2018-11-10T11:19:29.384Z,1372.00
2018-11-10T11:20:29.374Z,1372.00
2018-11-10T11:21:29.362Z,1384.00
2018-11-10T11:22:29.350Z,1412.00
2018-11-10T11:23:29.353Z,1460.00
2018-11-10T11:24:29.313Z,1484.00
2018-11-10T11:25:29.300Z,1480.00
2018-11-10T11:26:29.328Z,1468.00
2018-11-10T11:27:29.282Z,1476.00
2018-11-10T11:28:29.272Z,1500.00
2018-11-10T11:29:29.460Z,1528.00
2018-11-10T11:30:29.246Z,1536.00
2018-11-10T11:31:29.235Z,1524.00
2018-11-10T11:32:29.241Z,1508.00
2018-11-10T11:33:29.217Z,1492.00
2018-11-10T11:34:29.235Z,1492.00
2018-11-10T11:35:29.306Z,1492.00
2018-11-10T11:36:29.187Z,1488.00
2018-11-10T11:37:29.191Z,1516.00
2018-11-10T11:38:29.159Z,1580.00
2018-11-10T11:39:29.187Z,1676.00
2018-11-10T11:40:29.136Z,1708.00
2018-11-10T11:41:29.299Z,1644.00
2018-11-10T11:42:29.098Z,1572.00
2018-11-10T11:43:29.116Z,1484.00
2018-11-10T11:44:29.106Z,1432.00
2018-11-10T11:45:29.087Z,1484.00
2018-11-10T11:46:29.078Z,1476.00
2018-11-10T11:47:29.061Z,1420.00
2018-11-10T11:48:29.065Z,1384.00
2018-11-10T11:49:29.043Z,1308.00
2018-11-10T11:50:29.030Z,1280.00
2018-11-10T11:51:29.013Z,1336.00
2018-11-10T11:52:29.001Z,1420.00
2018-11-10T11:53:29.004Z,1424.00
2018-11-10T11:54:29.024Z,1504.00
2018-11-10T11:55:28.976Z,1524.00
2018-11-10T11:56:28.960Z,1568.00
2018-11-10T11:57:28.976Z,1504.00
2018-11-10T11:58:29.039Z,1484.00
2018-11-10T11:59:28.889Z,1384.00
2018-11-10T12:00:28.926Z,1560.00
2018-11-10T12:01:28.957Z,1660.00
2018-11-10T12:02:28.870Z,1612.00
2018-11-10T12:03:28.852Z,1748.00
2018-11-10T12:04:28.895Z,1900.00
2018-11-10T12:05:28.893Z,1916.00
2018-11-10T12:06:28.904Z,1672.00
2018-11-10T12:07:28.844Z,1548.00
2018-11-10T12:08:28.795Z,1384.00
2018-11-10T12:09:28.786Z,1284.00
2018-11-10T12:10:28.851Z,1208.00
2018-11-10T12:11:28.811Z,1104.00
2018-11-10T12:12:28.836Z,1212.00
2018-11-10T12:13:28.780Z,1184.00
2018-11-10T12:14:28.793Z,1168.00
2018-11-10T12:15:28.896Z,1072.00
2018-11-10T12:16:28.792Z,1176.00
2018-11-10T12:17:28.693Z,1208.00
2018-11-10T12:18:28.794Z,1252.00
2018-11-10T12:19:28.724Z,1260.00
2018-11-10T12:20:28.714Z,1172.00
2018-11-10T12:21:28.708Z,1220.00
2018-11-10T12:22:28.686Z,1076.00
2018-11-10T12:23:28.713Z,880.00
2018-11-10T12:24:28.664Z,964.00
2018-11-10T12:25:28.658Z,1044.00
2018-11-10T12:26:28.646Z,1112.00
2018-11-10T12:27:28.584Z,1028.00
2018-11-10T12:28:28.655Z,1096.00
2018-11-10T12:29:28.617Z,1204.00
2018-11-10T12:30:28.609Z,1080.00
2018-11-10T12:31:28.643Z,900.00
2018-11-10T12:32:28.589Z,852.00
2018-11-10T12:33:28.560Z,1040.00
2018-11-10T12:34:28.593Z,852.00
2018-11-10T12:35:28.542Z,896.00
2018-11-10T12:36:28.557Z,912.00
2018-11-10T12:37:28.624Z,836.00
2018-11-10T12:38:28.465Z,832.00
2018-11-10T12:39:28.535Z,884.00
2018-11-10T12:40:28.489Z,840.00
2018-11-10T12:41:28.478Z,844.00
2018-11-10T12:42:28.466Z,736.00
2018-11-10T12:43:28.462Z,736.00
2018-11-10T12:44:28.478Z,924.00
2018-11-10T12:45:28.398Z,908.00
2018-11-10T12:46:28.445Z,824.00
2018-11-10T12:47:28.479Z,920.00
2018-11-10T12:48:28.391Z,1040.00